sensor_id;sensor_type;location;lat;lon;timestamp;temperature;humidity
30648;DHT22;17683;53.360;9.736;2023-09-19T00:00:27;16.90;99.90
30648;DHT22;17683;53.360;9.736;2023-09-19T00:02:55;16.90;99.90
30648;DHT22;17683;53.360;9.736;2023-09-19T00:05:25;16.90;99.90
30648;DHT22;17683;53.360;9.736;2023-09-19T00:07:56;16.90;99.90
30648;DHT22;17683;53.360;9.736;2023-09-19T00:10:34;16.90;99.90
30648;DHT22;17683;53.360;9.736;2023-09-19T00:13:02;16.90;99.90
30648;DHT22;17683;53.360;9.736;2023-09-19T00:15:44;17.00;99.90
30648;DHT22;17683;53.360;9.736;2023-09-19T00:18:18;17.00;99.90
30648;DHT22;17683;53.360;9.736;2023-09-19T00:20:46;17.00;99.90
30648;DHT22;17683;53.360;9.736;2023-09-19T00:23:13;17.00;99.90
30648;DHT22;17683;53.360;9.736;2023-09-19T00:25:39;17.00;99.90
30648;DHT22;17683;53.360;9.736;2023-09-19T00:28:06;17.00;99.90
30648;DHT22;17683;53.360;9.736;2023-09-19T00:30:33;17.00;99.90
30648;DHT22;17683;53.360;9.736;2023-09-19T00:32:59;17.00;99.90
30648;DHT22;17683;53.360;9.736;2023-09-19T00:35:26;17.10;99.90
30648;DHT22;17683;53.360;9.736;2023-09-19T00:37:53;17.10;99.90
30648;DHT22;17683;53.360;9.736;2023-09-19T00:40:19;17.10;99.90
30648;DHT22;17683;53.360;9.736;2023-09-19T00:42:47;17.10;99.90
30648;DHT22;17683;53.360;9.736;2023-09-19T00:45:16;17.10;99.90
30648;DHT22;17683;53.360;9.736;2023-09-19T00:47:45;17.10;99.90
30648;DHT22;17683;53.360;9.736;2023-09-19T00:50:13;17.10;99.90
30648;DHT22;17683;53.360;9.736;2023-09-19T00:52:41;17.10;99.90
30648;DHT22;17683;53.360;9.736;2023-09-19T00:55:11;17.10;99.90
30648;DHT22;17683;53.360;9.736;2023-09-19T00:57:39;17.20;99.90
30648;DHT22;17683;53.360;9.736;2023-09-19T01:00:07;17.20;99.90
30648;DHT22;17683;53.360;9.736;2023-09-19T01:02:34;17.20;99.90
30648;DHT22;17683;53.360;9.736;2023-09-19T01:05:00;17.20;99.90
30648;DHT22;17683;53.360;9.736;2023-09-19T01:07:27;17.10;99.90
30648;DHT22;17683;53.360;9.736;2023-09-19T01:09:59;17.20;99.90
30648;DHT22;17683;53.360;9.736;2023-09-19T01:18:10;17.10;99.90
30648;DHT22;17683;53.360;9.736;2023-09-19T01:20:38;17.10;99.90
30648;DHT22;17683;53.360;9.736;2023-09-19T01:23:16;17.10;99.90
30648;DHT22;17683;53.360;9.736;2023-09-19T01:26:04;17.20;99.90
30648;DHT22;17683;53.360;9.736;2023-09-19T01:31:21;17.10;99.90
30648;DHT22;17683;53.360;9.736;2023-09-19T01:36:26;17.10;99.90
30648;DHT22;17683;53.360;9.736;2023-09-19T01:38:52;17.10;99.90
30648;DHT22;17683;53.360;9.736;2023-09-19T01:41:29;17.10;99.90
30648;DHT22;17683;53.360;9.736;2023-09-19T01:43:59;17.00;99.90
30648;DHT22;17683;53.360;9.736;2023-09-19T01:46:34;17.00;99.90
30648;DHT22;17683;53.360;9.736;2023-09-19T01:49:22;16.90;99.90
30648;DHT22;17683;53.360;9.736;2023-09-19T01:52:13;16.90;99.90
30648;DHT22;17683;53.360;9.736;2023-09-19T01:54:48;16.90;99.90
30648;DHT22;17683;53.360;9.736;2023-09-19T01:57:22;16.90;99.90
30648;DHT22;17683;53.360;9.736;2023-09-19T02:00:13;16.90;99.90
30648;DHT22;17683;53.360;9.736;2023-09-19T02:02:44;16.90;99.90
30648;DHT22;17683;53.360;9.736;2023-09-19T02:05:10;16.90;99.90
30648;DHT22;17683;53.360;9.736;2023-09-19T02:07:38;16.80;99.90
30648;DHT22;17683;53.360;9.736;2023-09-19T02:10:06;16.80;99.90
30648;DHT22;17683;53.360;9.736;2023-09-19T02:12:33;16.80;99.90
30648;DHT22;17683;53.360;9.736;2023-09-19T02:15:00;16.70;99.90
30648;DHT22;17683;53.360;9.736;2023-09-19T02:17:26;16.70;99.90
30648;DHT22;17683;53.360;9.736;2023-09-19T02:19:53;16.70;99.90
30648;DHT22;17683;53.360;9.736;2023-09-19T02:22:20;16.60;99.90
30648;DHT22;17683;53.360;9.736;2023-09-19T02:24:46;16.70;99.90
30648;DHT22;17683;53.360;9.736;2023-09-19T02:27:13;16.60;99.90
30648;DHT22;17683;53.360;9.736;2023-09-19T02:29:44;16.70;99.90
30648;DHT22;17683;53.360;9.736;2023-09-19T02:32:10;16.60;99.90
30648;DHT22;17683;53.360;9.736;2023-09-19T02:34:36;16.70;99.90
30648;DHT22;17683;53.360;9.736;2023-09-19T02:37:07;16.60;99.90
30648;DHT22;17683;53.360;9.736;2023-09-19T02:39:36;16.60;99.90
30648;DHT22;17683;53.360;9.736;2023-09-19T02:42:02;16.60;99.90
30648;DHT22;17683;53.360;9.736;2023-09-19T02:44:29;16.60;99.90
30648;DHT22;17683;53.360;9.736;2023-09-19T02:46:55;16.60;99.90
30648;DHT22;17683;53.360;9.736;2023-09-19T02:49:22;16.60;99.90
30648;DHT22;17683;53.360;9.736;2023-09-19T02:51:49;16.70;99.90
30648;DHT22;17683;53.360;9.736;2023-09-19T02:54:14;16.70;99.90
30648;DHT22;17683;53.360;9.736;2023-09-19T02:56:41;16.70;99.90
30648;DHT22;17683;53.360;9.736;2023-09-19T02:59:07;16.70;99.90
30648;DHT22;17683;53.360;9.736;2023-09-19T03:01:35;16.60;99.90
30648;DHT22;17683;53.360;9.736;2023-09-19T03:04:02;16.60;99.90
30648;DHT22;17683;53.360;9.736;2023-09-19T03:06:28;16.60;99.90
30648;DHT22;17683;53.360;9.736;2023-09-19T03:08:56;16.60;99.90
30648;DHT22;17683;53.360;9.736;2023-09-19T03:11:22;16.50;99.90
30648;DHT22;17683;53.360;9.736;2023-09-19T03:13:54;16.50;99.90
30648;DHT22;17683;53.360;9.736;2023-09-19T03:16:21;16.50;99.90
30648;DHT22;17683;53.360;9.736;2023-09-19T03:18:50;16.50;99.90
30648;DHT22;17683;53.360;9.736;2023-09-19T03:21:16;16.50;99.90
30648;DHT22;17683;53.360;9.736;2023-09-19T03:23:43;16.40;99.90
30648;DHT22;17683;53.360;9.736;2023-09-19T03:26:14;16.40;99.90
30648;DHT22;17683;53.360;9.736;2023-09-19T03:28:41;16.40;99.90
30648;DHT22;17683;53.360;9.736;2023-09-19T03:31:08;16.30;99.90
30648;DHT22;17683;53.360;9.736;2023-09-19T03:33:34;16.30;99.90
30648;DHT22;17683;53.360;9.736;2023-09-19T03:36:01;16.30;99.90
30648;DHT22;17683;53.360;9.736;2023-09-19T03:38:31;16.20;99.90
30648;DHT22;17683;53.360;9.736;2023-09-19T03:40:57;16.20;99.90
30648;DHT22;17683;53.360;9.736;2023-09-19T03:43:22;16.10;99.90
30648;DHT22;17683;53.360;9.736;2023-09-19T03:45:48;16.10;99.90
30648;DHT22;17683;53.360;9.736;2023-09-19T03:48:14;16.00;99.90
30648;DHT22;17683;53.360;9.736;2023-09-19T03:50:40;16.00;99.90
30648;DHT22;17683;53.360;9.736;2023-09-19T03:53:06;15.90;99.90
30648;DHT22;17683;53.360;9.736;2023-09-19T03:55:34;15.90;99.90
30648;DHT22;17683;53.360;9.736;2023-09-19T03:58:04;15.80;99.90
30648;DHT22;17683;53.360;9.736;2023-09-19T04:00:30;15.80;99.90
30648;DHT22;17683;53.360;9.736;2023-09-19T04:02:56;15.80;99.90
30648;DHT22;17683;53.360;9.736;2023-09-19T04:05:25;15.70;99.90
30648;DHT22;17683;53.360;9.736;2023-09-19T04:07:51;15.60;99.90
30648;DHT22;17683;53.360;9.736;2023-09-19T04:10:17;15.60;99.90
30648;DHT22;17683;53.360;9.736;2023-09-19T04:12:53;15.60;99.90
30648;DHT22;17683;53.360;9.736;2023-09-19T04:15:19;15.50;99.90
30648;DHT22;17683;53.360;9.736;2023-09-19T04:17:44;15.50;99.90
30648;DHT22;17683;53.360;9.736;2023-09-19T04:20:10;15.40;99.90
30648;DHT22;17683;53.360;9.736;2023-09-19T04:22:38;15.30;99.90
30648;DHT22;17683;53.360;9.736;2023-09-19T04:25:05;15.30;99.90
30648;DHT22;17683;53.360;9.736;2023-09-19T04:27:32;15.30;99.90
30648;DHT22;17683;53.360;9.736;2023-09-19T04:29:58;15.20;99.90
30648;DHT22;17683;53.360;9.736;2023-09-19T04:32:28;15.30;99.90
30648;DHT22;17683;53.360;9.736;2023-09-19T04:34:54;15.30;99.90
30648;DHT22;17683;53.360;9.736;2023-09-19T04:37:20;15.10;99.90
30648;DHT22;17683;53.360;9.736;2023-09-19T04:39:47;15.20;99.90
30648;DHT22;17683;53.360;9.736;2023-09-19T04:42:13;15.20;99.90
30648;DHT22;17683;53.360;9.736;2023-09-19T04:44:40;15.10;99.90
30648;DHT22;17683;53.360;9.736;2023-09-19T04:47:05;15.20;99.90
30648;DHT22;17683;53.360;9.736;2023-09-19T04:49:31;15.10;99.90
30648;DHT22;17683;53.360;9.736;2023-09-19T04:51:57;15.10;99.90
30648;DHT22;17683;53.360;9.736;2023-09-19T04:54:22;15.00;99.90
30648;DHT22;17683;53.360;9.736;2023-09-19T04:56:48;15.10;99.90
30648;DHT22;17683;53.360;9.736;2023-09-19T04:59:14;15.10;99.90
30648;DHT22;17683;53.360;9.736;2023-09-19T05:01:41;15.00;99.90
30648;DHT22;17683;53.360;9.736;2023-09-19T05:04:06;15.00;99.90
30648;DHT22;17683;53.360;9.736;2023-09-19T05:06:32;15.00;99.90
30648;DHT22;17683;53.360;9.736;2023-09-19T05:08:59;15.00;99.90
30648;DHT22;17683;53.360;9.736;2023-09-19T05:11:25;15.00;99.90
30648;DHT22;17683;53.360;9.736;2023-09-19T05:13:51;14.90;99.90
30648;DHT22;17683;53.360;9.736;2023-09-19T05:16:18;14.90;99.90
30648;DHT22;17683;53.360;9.736;2023-09-19T05:18:44;15.00;99.90
30648;DHT22;17683;53.360;9.736;2023-09-19T05:21:10;15.00;99.90
30648;DHT22;17683;53.360;9.736;2023-09-19T05:23:36;14.90;99.90
30648;DHT22;17683;53.360;9.736;2023-09-19T05:26:02;14.90;99.90
30648;DHT22;17683;53.360;9.736;2023-09-19T05:28:29;14.90;99.90
30648;DHT22;17683;53.360;9.736;2023-09-19T05:30:55;14.90;99.90
30648;DHT22;17683;53.360;9.736;2023-09-19T05:33:21;14.90;99.90
30648;DHT22;17683;53.360;9.736;2023-09-19T05:35:49;14.80;99.90
30648;DHT22;17683;53.360;9.736;2023-09-19T05:38:15;14.80;99.90
30648;DHT22;17683;53.360;9.736;2023-09-19T05:40:45;14.80;99.90
30648;DHT22;17683;53.360;9.736;2023-09-19T05:43:11;14.90;99.90
30648;DHT22;17683;53.360;9.736;2023-09-19T05:45:37;14.80;99.90
30648;DHT22;17683;53.360;9.736;2023-09-19T05:48:13;14.80;99.90
30648;DHT22;17683;53.360;9.736;2023-09-19T05:50:41;14.70;99.90
30648;DHT22;17683;53.360;9.736;2023-09-19T05:53:07;14.80;99.90
30648;DHT22;17683;53.360;9.736;2023-09-19T05:55:33;14.80;99.90
30648;DHT22;17683;53.360;9.736;2023-09-19T05:57:59;14.90;99.90
30648;DHT22;17683;53.360;9.736;2023-09-19T06:00:25;14.90;99.90
30648;DHT22;17683;53.360;9.736;2023-09-19T06:02:53;15.00;99.90
30648;DHT22;17683;53.360;9.736;2023-09-19T06:05:20;15.00;99.90
30648;DHT22;17683;53.360;9.736;2023-09-19T06:07:46;15.00;99.90
30648;DHT22;17683;53.360;9.736;2023-09-19T06:10:12;15.10;99.90
30648;DHT22;17683;53.360;9.736;2023-09-19T06:12:42;15.20;99.90
30648;DHT22;17683;53.360;9.736;2023-09-19T06:15:13;15.30;99.90
30648;DHT22;17683;53.360;9.736;2023-09-19T06:17:51;15.30;99.90
30648;DHT22;17683;53.360;9.736;2023-09-19T06:20:21;15.40;99.90
30648;DHT22;17683;53.360;9.736;2023-09-19T06:22:48;15.50;99.90
30648;DHT22;17683;53.360;9.736;2023-09-19T06:25:14;15.50;99.90
30648;DHT22;17683;53.360;9.736;2023-09-19T06:27:52;15.60;99.90
30648;DHT22;17683;53.360;9.736;2023-09-19T06:30:21;15.60;99.90
30648;DHT22;17683;53.360;9.736;2023-09-19T06:32:47;15.70;99.90
30648;DHT22;17683;53.360;9.736;2023-09-19T06:35:15;15.80;99.90
30648;DHT22;17683;53.360;9.736;2023-09-19T06:37:43;15.70;99.90
30648;DHT22;17683;53.360;9.736;2023-09-19T06:40:12;15.70;99.90
30648;DHT22;17683;53.360;9.736;2023-09-19T06:42:43;15.70;99.90
30648;DHT22;17683;53.360;9.736;2023-09-19T06:45:13;15.80;99.90
30648;DHT22;17683;53.360;9.736;2023-09-19T06:47:44;15.90;99.90
30648;DHT22;17683;53.360;9.736;2023-09-19T06:50:11;15.90;99.90
30648;DHT22;17683;53.360;9.736;2023-09-19T06:52:42;15.90;99.90
30648;DHT22;17683;53.360;9.736;2023-09-19T06:55:08;16.00;99.90
30648;DHT22;17683;53.360;9.736;2023-09-19T06:57:39;16.10;99.90
30648;DHT22;17683;53.360;9.736;2023-09-19T07:00:09;16.10;99.90
30648;DHT22;17683;53.360;9.736;2023-09-19T07:05:22;16.10;99.90
30648;DHT22;17683;53.360;9.736;2023-09-19T07:07:48;16.20;99.90
30648;DHT22;17683;53.360;9.736;2023-09-19T07:10:14;16.20;99.90
30648;DHT22;17683;53.360;9.736;2023-09-19T07:12:39;16.20;99.90
30648;DHT22;17683;53.360;9.736;2023-09-19T07:15:09;16.20;99.90
30648;DHT22;17683;53.360;9.736;2023-09-19T07:17:35;16.20;99.90
30648;DHT22;17683;53.360;9.736;2023-09-19T07:20:00;16.30;99.90
30648;DHT22;17683;53.360;9.736;2023-09-19T07:22:26;16.20;99.90
30648;DHT22;17683;53.360;9.736;2023-09-19T07:24:52;16.20;99.90
30648;DHT22;17683;53.360;9.736;2023-09-19T07:27:18;16.30;99.90
30648;DHT22;17683;53.360;9.736;2023-09-19T07:29:43;16.20;99.90
30648;DHT22;17683;53.360;9.736;2023-09-19T07:32:11;16.30;99.90
30648;DHT22;17683;53.360;9.736;2023-09-19T07:34:37;16.30;99.90
30648;DHT22;17683;53.360;9.736;2023-09-19T07:37:06;16.40;99.90
30648;DHT22;17683;53.360;9.736;2023-09-19T07:39:31;16.40;99.90
30648;DHT22;17683;53.360;9.736;2023-09-19T07:41:57;16.40;99.90
30648;DHT22;17683;53.360;9.736;2023-09-19T07:44:23;16.40;99.90
30648;DHT22;17683;53.360;9.736;2023-09-19T07:46:51;16.40;99.90
30648;DHT22;17683;53.360;9.736;2023-09-19T07:49:17;16.40;99.90
30648;DHT22;17683;53.360;9.736;2023-09-19T07:51:43;16.40;99.90
30648;DHT22;17683;53.360;9.736;2023-09-19T07:54:12;16.40;99.90
30648;DHT22;17683;53.360;9.736;2023-09-19T07:56:38;16.50;99.90
30648;DHT22;17683;53.360;9.736;2023-09-19T07:59:04;16.50;99.90
30648;DHT22;17683;53.360;9.736;2023-09-19T08:01:29;16.50;99.90
30648;DHT22;17683;53.360;9.736;2023-09-19T08:03:55;16.50;99.90
30648;DHT22;17683;53.360;9.736;2023-09-19T08:06:21;16.50;99.90
30648;DHT22;17683;53.360;9.736;2023-09-19T08:08:47;16.60;99.90
30648;DHT22;17683;53.360;9.736;2023-09-19T08:11:15;16.60;99.90
30648;DHT22;17683;53.360;9.736;2023-09-19T08:13:46;16.60;99.90
30648;DHT22;17683;53.360;9.736;2023-09-19T08:16:15;16.60;99.90
30648;DHT22;17683;53.360;9.736;2023-09-19T08:18:41;16.70;99.90
30648;DHT22;17683;53.360;9.736;2023-09-19T08:21:07;16.80;99.90
30648;DHT22;17683;53.360;9.736;2023-09-19T08:23:36;16.80;99.90
30648;DHT22;17683;53.360;9.736;2023-09-19T08:26:03;16.90;99.90
30648;DHT22;17683;53.360;9.736;2023-09-19T08:28:32;16.90;99.90
30648;DHT22;17683;53.360;9.736;2023-09-19T08:31:04;17.00;99.90
30648;DHT22;17683;53.360;9.736;2023-09-19T08:33:34;16.90;99.90
30648;DHT22;17683;53.360;9.736;2023-09-19T08:36:01;17.00;99.90
30648;DHT22;17683;53.360;9.736;2023-09-19T08:38:31;17.00;99.90
30648;DHT22;17683;53.360;9.736;2023-09-19T08:40:59;17.10;99.90
30648;DHT22;17683;53.360;9.736;2023-09-19T08:43:26;17.10;99.90
30648;DHT22;17683;53.360;9.736;2023-09-19T08:46:15;17.20;99.90
30648;DHT22;17683;53.360;9.736;2023-09-19T08:49:05;17.20;99.90
30648;DHT22;17683;53.360;9.736;2023-09-19T08:51:42;17.30;99.90
30648;DHT22;17683;53.360;9.736;2023-09-19T08:54:25;17.30;99.90
30648;DHT22;17683;53.360;9.736;2023-09-19T08:56:54;17.30;99.90
30648;DHT22;17683;53.360;9.736;2023-09-19T08:59:23;17.40;99.90
30648;DHT22;17683;53.360;9.736;2023-09-19T09:01:53;17.50;99.90
30648;DHT22;17683;53.360;9.736;2023-09-19T09:04:19;17.50;99.90
30648;DHT22;17683;53.360;9.736;2023-09-19T09:06:46;17.50;99.90
30648;DHT22;17683;53.360;9.736;2023-09-19T09:09:14;17.50;99.90
30648;DHT22;17683;53.360;9.736;2023-09-19T09:11:40;17.50;99.90
30648;DHT22;17683;53.360;9.736;2023-09-19T09:14:07;17.60;99.90
30648;DHT22;17683;53.360;9.736;2023-09-19T09:16:33;17.70;99.90
30648;DHT22;17683;53.360;9.736;2023-09-19T09:19:00;17.80;99.90
30648;DHT22;17683;53.360;9.736;2023-09-19T09:21:26;17.90;99.90
30648;DHT22;17683;53.360;9.736;2023-09-19T09:23:52;18.10;99.90
30648;DHT22;17683;53.360;9.736;2023-09-19T09:29:04;18.30;99.90
30648;DHT22;17683;53.360;9.736;2023-09-19T09:31:30;18.40;99.90
30648;DHT22;17683;53.360;9.736;2023-09-19T09:33:57;18.50;99.90
30648;DHT22;17683;53.360;9.736;2023-09-19T09:36:53;18.50;99.90
30648;DHT22;17683;53.360;9.736;2023-09-19T09:39:31;18.60;99.90
30648;DHT22;17683;53.360;9.736;2023-09-19T09:41:57;18.70;99.90
30648;DHT22;17683;53.360;9.736;2023-09-19T09:44:24;18.70;99.90
30648;DHT22;17683;53.360;9.736;2023-09-19T09:46:50;18.70;99.90
30648;DHT22;17683;53.360;9.736;2023-09-19T09:49:26;18.70;99.90
30648;DHT22;17683;53.360;9.736;2023-09-19T09:52:07;18.70;99.90
30648;DHT22;17683;53.360;9.736;2023-09-19T09:55:02;18.80;99.90
30648;DHT22;17683;53.360;9.736;2023-09-19T09:57:33;18.80;99.90
30648;DHT22;17683;53.360;9.736;2023-09-19T10:00:00;18.80;99.90
30648;DHT22;17683;53.360;9.736;2023-09-19T10:02:39;18.90;99.90
30648;DHT22;17683;53.360;9.736;2023-09-19T10:05:15;18.90;99.90
30648;DHT22;17683;53.360;9.736;2023-09-19T10:07:53;18.80;99.90
30648;DHT22;17683;53.360;9.736;2023-09-19T10:10:33;18.80;99.90
30648;DHT22;17683;53.360;9.736;2023-09-19T10:13:20;18.80;99.90
30648;DHT22;17683;53.360;9.736;2023-09-19T10:15:50;18.90;99.90
30648;DHT22;17683;53.360;9.736;2023-09-19T10:18:27;19.00;99.90
30648;DHT22;17683;53.360;9.736;2023-09-19T10:20:56;19.00;99.90
30648;DHT22;17683;53.360;9.736;2023-09-19T10:23:22;19.00;99.90
30648;DHT22;17683;53.360;9.736;2023-09-19T10:25:50;19.00;99.90
30648;DHT22;17683;53.360;9.736;2023-09-19T10:28:18;19.10;99.90
30648;DHT22;17683;53.360;9.736;2023-09-19T10:30:57;19.20;99.90
30648;DHT22;17683;53.360;9.736;2023-09-19T10:33:24;19.20;99.90
30648;DHT22;17683;53.360;9.736;2023-09-19T10:35:58;19.20;99.90
30648;DHT22;17683;53.360;9.736;2023-09-19T10:38:26;19.20;99.90
30648;DHT22;17683;53.360;9.736;2023-09-19T10:40:55;19.20;99.90
30648;DHT22;17683;53.360;9.736;2023-09-19T10:43:35;19.30;99.90
30648;DHT22;17683;53.360;9.736;2023-09-19T10:46:07;19.40;99.90
30648;DHT22;17683;53.360;9.736;2023-09-19T10:48:36;19.40;99.90
30648;DHT22;17683;53.360;9.736;2023-09-19T10:51:10;19.50;99.90
30648;DHT22;17683;53.360;9.736;2023-09-19T10:56:23;19.40;99.90
30648;DHT22;17683;53.360;9.736;2023-09-19T10:59:08;19.40;99.90
30648;DHT22;17683;53.360;9.736;2023-09-19T11:01:46;19.30;99.90
30648;DHT22;17683;53.360;9.736;2023-09-19T11:04:28;19.30;99.90
30648;DHT22;17683;53.360;9.736;2023-09-19T11:07:10;19.30;99.90
30648;DHT22;17683;53.360;9.736;2023-09-19T11:09:53;19.30;99.90
30648;DHT22;17683;53.360;9.736;2023-09-19T11:14:58;19.20;99.90
30648;DHT22;17683;53.360;9.736;2023-09-19T11:30:49;19.30;99.90
30648;DHT22;17683;53.360;9.736;2023-09-19T11:46:33;19.70;99.90
30648;DHT22;17683;53.360;9.736;2023-09-19T11:49:09;19.70;99.90
30648;DHT22;17683;53.360;9.736;2023-09-19T11:51:55;19.70;99.90
30648;DHT22;17683;53.360;9.736;2023-09-19T11:54:21;19.70;99.90
30648;DHT22;17683;53.360;9.736;2023-09-19T11:56:53;19.80;99.90
30648;DHT22;17683;53.360;9.736;2023-09-19T11:59:23;19.70;99.90
30648;DHT22;17683;53.360;9.736;2023-09-19T12:01:54;19.80;99.90
30648;DHT22;17683;53.360;9.736;2023-09-19T12:04:43;19.80;99.90
30648;DHT22;17683;53.360;9.736;2023-09-19T12:07:14;19.90;99.90
30648;DHT22;17683;53.360;9.736;2023-09-19T12:09:47;20.00;99.90
30648;DHT22;17683;53.360;9.736;2023-09-19T12:12:24;20.10;99.90
30648;DHT22;17683;53.360;9.736;2023-09-19T12:14:54;20.10;99.90
30648;DHT22;17683;53.360;9.736;2023-09-19T12:17:20;20.20;99.90
30648;DHT22;17683;53.360;9.736;2023-09-19T12:19:52;20.20;99.90
30648;DHT22;17683;53.360;9.736;2023-09-19T12:22:18;20.20;99.90
30648;DHT22;17683;53.360;9.736;2023-09-19T12:24:46;20.20;99.90
30648;DHT22;17683;53.360;9.736;2023-09-19T12:27:12;20.20;99.90
30648;DHT22;17683;53.360;9.736;2023-09-19T12:29:43;20.20;99.90
30648;DHT22;17683;53.360;9.736;2023-09-19T12:32:10;20.10;99.90
30648;DHT22;17683;53.360;9.736;2023-09-19T12:34:36;20.00;99.90
30648;DHT22;17683;53.360;9.736;2023-09-19T12:37:09;20.00;99.90
30648;DHT22;17683;53.360;9.736;2023-09-19T12:39:45;20.00;99.90
30648;DHT22;17683;53.360;9.736;2023-09-19T12:42:23;20.00;99.90
30648;DHT22;17683;53.360;9.736;2023-09-19T12:44:51;20.00;99.90
30648;DHT22;17683;53.360;9.736;2023-09-19T12:47:22;20.00;99.90
30648;DHT22;17683;53.360;9.736;2023-09-19T12:50:06;20.00;99.90
30648;DHT22;17683;53.360;9.736;2023-09-19T12:52:41;19.90;99.90
30648;DHT22;17683;53.360;9.736;2023-09-19T12:55:07;19.90;99.90
30648;DHT22;17683;53.360;9.736;2023-09-19T12:57:34;19.90;99.90
30648;DHT22;17683;53.360;9.736;2023-09-19T13:00:04;20.00;99.90
30648;DHT22;17683;53.360;9.736;2023-09-19T13:02:36;20.10;99.90
30648;DHT22;17683;53.360;9.736;2023-09-19T13:05:03;20.10;99.90
30648;DHT22;17683;53.360;9.736;2023-09-19T13:07:45;20.10;99.90
30648;DHT22;17683;53.360;9.736;2023-09-19T13:10:13;20.20;99.90
30648;DHT22;17683;53.360;9.736;2023-09-19T13:12:42;20.20;99.90
30648;DHT22;17683;53.360;9.736;2023-09-19T13:15:10;20.20;99.90
30648;DHT22;17683;53.360;9.736;2023-09-19T13:17:49;20.20;99.90
30648;DHT22;17683;53.360;9.736;2023-09-19T13:20:25;20.20;99.90
30648;DHT22;17683;53.360;9.736;2023-09-19T13:22:55;20.20;99.90
30648;DHT22;17683;53.360;9.736;2023-09-19T13:25:25;20.20;99.90
30648;DHT22;17683;53.360;9.736;2023-09-19T13:27:54;20.20;99.90
30648;DHT22;17683;53.360;9.736;2023-09-19T13:30:26;20.10;99.90
30648;DHT22;17683;53.360;9.736;2023-09-19T13:33:03;20.00;99.90
30648;DHT22;17683;53.360;9.736;2023-09-19T13:35:31;19.90;99.90
30648;DHT22;17683;53.360;9.736;2023-09-19T13:37:58;19.90;99.90
30648;DHT22;17683;53.360;9.736;2023-09-19T13:40:24;19.90;99.90
30648;DHT22;17683;53.360;9.736;2023-09-19T13:43:00;19.90;99.90
30648;DHT22;17683;53.360;9.736;2023-09-19T13:45:26;19.90;99.90
30648;DHT22;17683;53.360;9.736;2023-09-19T13:47:56;19.90;99.90
30648;DHT22;17683;53.360;9.736;2023-09-19T13:50:22;19.90;99.90
30648;DHT22;17683;53.360;9.736;2023-09-19T13:52:50;20.00;99.90
30648;DHT22;17683;53.360;9.736;2023-09-19T13:55:19;19.90;99.90
30648;DHT22;17683;53.360;9.736;2023-09-19T13:57:48;20.00;99.90
30648;DHT22;17683;53.360;9.736;2023-09-19T14:00:20;20.00;99.90
30648;DHT22;17683;53.360;9.736;2023-09-19T14:02:48;20.00;99.90
30648;DHT22;17683;53.360;9.736;2023-09-19T14:05:15;20.00;99.90
30648;DHT22;17683;53.360;9.736;2023-09-19T14:08:15;20.10;99.90
30648;DHT22;17683;53.360;9.736;2023-09-19T14:10:41;20.00;99.90
30648;DHT22;17683;53.360;9.736;2023-09-19T14:13:06;20.00;99.90
30648;DHT22;17683;53.360;9.736;2023-09-19T14:15:32;20.00;99.90
30648;DHT22;17683;53.360;9.736;2023-09-19T14:18:00;20.10;99.90
30648;DHT22;17683;53.360;9.736;2023-09-19T14:20:26;20.00;99.90
30648;DHT22;17683;53.360;9.736;2023-09-19T14:22:55;20.00;99.90
30648;DHT22;17683;53.360;9.736;2023-09-19T14:25:21;20.00;99.90
30648;DHT22;17683;53.360;9.736;2023-09-19T14:27:48;19.90;99.90
30648;DHT22;17683;53.360;9.736;2023-09-19T14:30:14;19.90;99.90
30648;DHT22;17683;53.360;9.736;2023-09-19T14:32:39;19.70;99.90
30648;DHT22;17683;53.360;9.736;2023-09-19T14:35:07;19.70;99.90
30648;DHT22;17683;53.360;9.736;2023-09-19T14:37:33;19.70;99.90
30648;DHT22;17683;53.360;9.736;2023-09-19T14:39:58;19.70;99.90
30648;DHT22;17683;53.360;9.736;2023-09-19T14:42:24;19.60;99.90
30648;DHT22;17683;53.360;9.736;2023-09-19T14:44:50;19.60;99.90
30648;DHT22;17683;53.360;9.736;2023-09-19T14:47:15;19.60;99.90
30648;DHT22;17683;53.360;9.736;2023-09-19T14:49:42;19.60;99.90
30648;DHT22;17683;53.360;9.736;2023-09-19T14:52:09;19.50;99.90
30648;DHT22;17683;53.360;9.736;2023-09-19T14:54:35;19.60;99.90
30648;DHT22;17683;53.360;9.736;2023-09-19T14:57:03;19.50;99.90
30648;DHT22;17683;53.360;9.736;2023-09-19T14:59:34;19.50;99.90
30648;DHT22;17683;53.360;9.736;2023-09-19T15:02:05;19.50;99.90
30648;DHT22;17683;53.360;9.736;2023-09-19T15:04:31;19.40;99.90
30648;DHT22;17683;53.360;9.736;2023-09-19T15:06:56;19.40;99.90
30648;DHT22;17683;53.360;9.736;2023-09-19T15:09:23;19.40;99.90
30648;DHT22;17683;53.360;9.736;2023-09-19T15:11:52;19.40;99.90
30648;DHT22;17683;53.360;9.736;2023-09-19T15:14:18;19.40;99.90
30648;DHT22;17683;53.360;9.736;2023-09-19T15:16:44;19.30;99.90
30648;DHT22;17683;53.360;9.736;2023-09-19T15:19:09;19.30;99.90
30648;DHT22;17683;53.360;9.736;2023-09-19T15:21:38;19.30;99.90
30648;DHT22;17683;53.360;9.736;2023-09-19T15:24:04;19.30;99.90
30648;DHT22;17683;53.360;9.736;2023-09-19T15:26:30;19.30;99.90
30648;DHT22;17683;53.360;9.736;2023-09-19T15:28:56;19.30;99.90
30648;DHT22;17683;53.360;9.736;2023-09-19T15:31:22;19.30;99.90
30648;DHT22;17683;53.360;9.736;2023-09-19T15:33:48;19.30;99.90
30648;DHT22;17683;53.360;9.736;2023-09-19T15:36:14;19.20;99.90
30648;DHT22;17683;53.360;9.736;2023-09-19T15:39:02;19.10;99.90
30648;DHT22;17683;53.360;9.736;2023-09-19T15:41:36;19.10;99.90
30648;DHT22;17683;53.360;9.736;2023-09-19T15:44:03;19.10;99.90
30648;DHT22;17683;53.360;9.736;2023-09-19T15:46:30;19.10;99.90
30648;DHT22;17683;53.360;9.736;2023-09-19T15:48:56;19.10;99.90
30648;DHT22;17683;53.360;9.736;2023-09-19T15:51:23;19.10;99.90
30648;DHT22;17683;53.360;9.736;2023-09-19T15:53:50;19.10;99.90
30648;DHT22;17683;53.360;9.736;2023-09-19T15:56:17;19.00;99.90
30648;DHT22;17683;53.360;9.736;2023-09-19T15:58:47;19.00;99.90
30648;DHT22;17683;53.360;9.736;2023-09-19T16:01:13;19.00;99.90
30648;DHT22;17683;53.360;9.736;2023-09-19T16:03:42;19.00;99.90
30648;DHT22;17683;53.360;9.736;2023-09-19T16:06:14;18.90;99.90
30648;DHT22;17683;53.360;9.736;2023-09-19T16:08:44;18.90;99.90
30648;DHT22;17683;53.360;9.736;2023-09-19T16:11:10;18.90;99.90
30648;DHT22;17683;53.360;9.736;2023-09-19T16:13:37;18.90;99.90
30648;DHT22;17683;53.360;9.736;2023-09-19T16:16:03;18.80;99.90
30648;DHT22;17683;53.360;9.736;2023-09-19T16:18:29;18.80;99.90
30648;DHT22;17683;53.360;9.736;2023-09-19T16:21:02;18.80;99.90
30648;DHT22;17683;53.360;9.736;2023-09-19T16:23:28;18.80;99.90
30648;DHT22;17683;53.360;9.736;2023-09-19T16:26:05;18.80;99.90
30648;DHT22;17683;53.360;9.736;2023-09-19T16:28:32;18.80;99.90
30648;DHT22;17683;53.360;9.736;2023-09-19T16:31:00;18.70;99.90